sensor_id;sensor_type;location;lat;lon;timestamp;temperature;humidity
37322;DHT22;23697;48.684;9.032;2023-09-18T01:46:47;19.30;76.90
37322;DHT22;23697;48.684;9.032;2023-09-18T01:49:19;19.70;74.60
37322;DHT22;23697;48.684;9.032;2023-09-18T01:52:03;19.90;74.30
37322;DHT22;23697;48.684;9.032;2023-09-18T01:54:47;20.10;76.90
37322;DHT22;23697;48.684;9.032;2023-09-18T01:57:14;19.80;78.30
37322;DHT22;23697;48.684;9.032;2023-09-18T01:59:43;19.60;79.80
37322;DHT22;23697;48.684;9.032;2023-09-18T02:02:12;19.40;80.60
37322;DHT22;23697;48.684;9.032;2023-09-18T02:04:39;19.20;82.30
37322;DHT22;23697;48.684;9.032;2023-09-18T02:07:06;19.10;83.40
37322;DHT22;23697;48.684;9.032;2023-09-18T02:09:33;18.90;83.50
37322;DHT22;23697;48.684;9.032;2023-09-18T02:12:00;18.80;84.70
37322;DHT22;23697;48.684;9.032;2023-09-18T02:14:28;18.70;85.20
37322;DHT22;23697;48.684;9.032;2023-09-18T02:16:57;18.60;85.60
37322;DHT22;23697;48.684;9.032;2023-09-18T02:19:25;18.60;85.30
37322;DHT22;23697;48.684;9.032;2023-09-18T02:21:52;18.50;85.40
37322;DHT22;23697;48.684;9.032;2023-09-18T02:24:19;18.50;85.40
37322;DHT22;23697;48.684;9.032;2023-09-18T02:26:46;18.40;85.70
37322;DHT22;23697;48.684;9.032;2023-09-18T02:29:12;18.40;86.00
37322;DHT22;23697;48.684;9.032;2023-09-18T02:31:40;18.40;86.30
37322;DHT22;23697;48.684;9.032;2023-09-18T02:34:07;18.40;85.30
37322;DHT22;23697;48.684;9.032;2023-09-18T02:36:36;18.40;84.70
37322;DHT22;23697;48.684;9.032;2023-09-18T02:39:03;18.50;84.20
37322;DHT22;23697;48.684;9.032;2023-09-18T02:41:30;18.50;83.50
37322;DHT22;23697;48.684;9.032;2023-09-18T02:43:57;18.50;83.60
37322;DHT22;23697;48.684;9.032;2023-09-18T02:46:24;18.50;83.60
37322;DHT22;23697;48.684;9.032;2023-09-18T02:48:50;18.40;83.70
37322;DHT22;23697;48.684;9.032;2023-09-18T02:51:17;18.30;84.10
37322;DHT22;23697;48.684;9.032;2023-09-18T02:53:46;18.30;84.40
37322;DHT22;23697;48.684;9.032;2023-09-18T02:56:13;18.20;84.70
37322;DHT22;23697;48.684;9.032;2023-09-18T02:58:40;18.20;85.00
37322;DHT22;23697;48.684;9.032;2023-09-18T03:01:07;18.10;85.10
37322;DHT22;23697;48.684;9.032;2023-09-18T03:03:34;18.10;85.20
37322;DHT22;23697;48.684;9.032;2023-09-18T03:06:01;18.10;85.70
37322;DHT22;23697;48.684;9.032;2023-09-18T03:08:28;18.00;85.90
37322;DHT22;23697;48.684;9.032;2023-09-18T03:10:57;17.90;86.10
37322;DHT22;23697;48.684;9.032;2023-09-18T03:13:25;17.80;86.50
37322;DHT22;23697;48.684;9.032;2023-09-18T03:15:52;17.80;86.70
37322;DHT22;23697;48.684;9.032;2023-09-18T03:18:19;17.80;86.70
37322;DHT22;23697;48.684;9.032;2023-09-18T03:20:46;17.70;87.00
37322;DHT22;23697;48.684;9.032;2023-09-18T03:23:13;17.60;87.10
37322;DHT22;23697;48.684;9.032;2023-09-18T03:25:40;17.60;87.10
37322;DHT22;23697;48.684;9.032;2023-09-18T03:28:09;17.60;87.40
37322;DHT22;23697;48.684;9.032;2023-09-18T03:30:36;17.60;87.50
37322;DHT22;23697;48.684;9.032;2023-09-18T03:33:03;17.60;87.60
37322;DHT22;23697;48.684;9.032;2023-09-18T03:35:31;17.60;87.50
37322;DHT22;23697;48.684;9.032;2023-09-18T03:37:58;17.60;87.60
37322;DHT22;23697;48.684;9.032;2023-09-18T03:40:26;17.60;87.70
37322;DHT22;23697;48.684;9.032;2023-09-18T03:42:53;17.60;87.80
37322;DHT22;23697;48.684;9.032;2023-09-18T03:45:21;17.60;87.80
37322;DHT22;23697;48.684;9.032;2023-09-18T03:47:48;17.70;87.90
37322;DHT22;23697;48.684;9.032;2023-09-18T03:50:15;17.70;87.90
37322;DHT22;23697;48.684;9.032;2023-09-18T03:52:42;17.80;87.60
37322;DHT22;23697;48.684;9.032;2023-09-18T03:55:09;17.80;87.40
37322;DHT22;23697;48.684;9.032;2023-09-18T03:57:39;17.80;87.30
37322;DHT22;23697;48.684;9.032;2023-09-18T04:00:06;17.80;87.30
37322;DHT22;23697;48.684;9.032;2023-09-18T04:02:35;17.80;87.10
37322;DHT22;23697;48.684;9.032;2023-09-18T04:05:02;17.80;87.00
37322;DHT22;23697;48.684;9.032;2023-09-18T04:07:30;17.80;86.90
37322;DHT22;23697;48.684;9.032;2023-09-18T04:09:57;17.90;86.50
37322;DHT22;23697;48.684;9.032;2023-09-18T04:12:24;18.00;86.10
37322;DHT22;23697;48.684;9.032;2023-09-18T04:14:52;18.10;85.60
37322;DHT22;23697;48.684;9.032;2023-09-18T04:17:19;18.10;85.40
37322;DHT22;23697;48.684;9.032;2023-09-18T04:19:47;18.10;85.60
37322;DHT22;23697;48.684;9.032;2023-09-18T04:22:14;18.10;85.80
37322;DHT22;23697;48.684;9.032;2023-09-18T04:24:41;18.10;85.30
37322;DHT22;23697;48.684;9.032;2023-09-18T04:27:08;18.10;85.30
37322;DHT22;23697;48.684;9.032;2023-09-18T04:29:35;18.10;85.40
37322;DHT22;23697;48.684;9.032;2023-09-18T04:32:03;18.10;85.60
37322;DHT22;23697;48.684;9.032;2023-09-18T04:34:31;18.10;85.30
37322;DHT22;23697;48.684;9.032;2023-09-18T04:36:59;18.10;85.40
37322;DHT22;23697;48.684;9.032;2023-09-18T04:39:26;18.10;85.50
37322;DHT22;23697;48.684;9.032;2023-09-18T04:41:55;18.10;86.00
37322;DHT22;23697;48.684;9.032;2023-09-18T04:44:22;18.10;86.10
37322;DHT22;23697;48.684;9.032;2023-09-18T04:46:49;18.00;86.20
37322;DHT22;23697;48.684;9.032;2023-09-18T04:49:16;18.00;86.30
37322;DHT22;23697;48.684;9.032;2023-09-18T04:51:43;17.90;86.40
37322;DHT22;23697;48.684;9.032;2023-09-18T04:54:13;17.90;86.70
37322;DHT22;23697;48.684;9.032;2023-09-18T04:56:41;17.90;86.90
37322;DHT22;23697;48.684;9.032;2023-09-18T04:59:07;17.90;86.90
37322;DHT22;23697;48.684;9.032;2023-09-18T05:01:34;17.90;86.90
37322;DHT22;23697;48.684;9.032;2023-09-18T05:04:01;17.90;87.10
37322;DHT22;23697;48.684;9.032;2023-09-18T05:06:28;17.90;87.20
37322;DHT22;23697;48.684;9.032;2023-09-18T05:08:55;17.90;87.20
37322;DHT22;23697;48.684;9.032;2023-09-18T05:11:24;17.90;87.30
37322;DHT22;23697;48.684;9.032;2023-09-18T05:13:51;17.90;87.40
37322;DHT22;23697;48.684;9.032;2023-09-18T05:16:18;17.80;87.20
37322;DHT22;23697;48.684;9.032;2023-09-18T05:18:44;17.90;87.10
37322;DHT22;23697;48.684;9.032;2023-09-18T05:21:11;17.80;87.10
37322;DHT22;23697;48.684;9.032;2023-09-18T05:23:38;17.80;87.00
37322;DHT22;23697;48.684;9.032;2023-09-18T05:26:05;17.80;86.80
37322;DHT22;23697;48.684;9.032;2023-09-18T05:28:33;17.90;86.70
37322;DHT22;23697;48.684;9.032;2023-09-18T05:31:00;17.90;86.70
37322;DHT22;23697;48.684;9.032;2023-09-18T05:33:27;17.90;86.80
37322;DHT22;23697;48.684;9.032;2023-09-18T05:35:54;17.90;87.00
37322;DHT22;23697;48.684;9.032;2023-09-18T05:38:21;17.90;86.70
37322;DHT22;23697;48.684;9.032;2023-09-18T05:40:48;17.90;86.90
37322;DHT22;23697;48.684;9.032;2023-09-18T05:43:15;18.00;86.80
37322;DHT22;23697;48.684;9.032;2023-09-18T05:45:45;18.00;86.80
37322;DHT22;23697;48.684;9.032;2023-09-18T05:48:11;18.00;86.90
37322;DHT22;23697;48.684;9.032;2023-09-18T05:50:38;18.00;86.60
37322;DHT22;23697;48.684;9.032;2023-09-18T05:53:07;18.10;86.80
37322;DHT22;23697;48.684;9.032;2023-09-18T05:55:34;18.10;86.80
37322;DHT22;23697;48.684;9.032;2023-09-18T05:58:01;18.00;86.60
37322;DHT22;23697;48.684;9.032;2023-09-18T06:00:29;18.10;86.50
37322;DHT22;23697;48.684;9.032;2023-09-18T06:02:58;18.10;86.50
37322;DHT22;23697;48.684;9.032;2023-09-18T06:05:25;18.10;86.60
37322;DHT22;23697;48.684;9.032;2023-09-18T06:07:52;18.10;86.70
37322;DHT22;23697;48.684;9.032;2023-09-18T06:10:19;18.10;86.70
37322;DHT22;23697;48.684;9.032;2023-09-18T06:12:46;18.10;86.80
37322;DHT22;23697;48.684;9.032;2023-09-18T06:15:13;18.10;86.80
37322;DHT22;23697;48.684;9.032;2023-09-18T06:17:41;18.10;86.90
37322;DHT22;23697;48.684;9.032;2023-09-18T06:20:11;18.10;86.80
37322;DHT22;23697;48.684;9.032;2023-09-18T06:22:40;18.10;86.60
37322;DHT22;23697;48.684;9.032;2023-09-18T06:25:08;18.10;86.60
37322;DHT22;23697;48.684;9.032;2023-09-18T06:27:36;18.10;86.50
37322;DHT22;23697;48.684;9.032;2023-09-18T06:30:05;18.20;86.40
37322;DHT22;23697;48.684;9.032;2023-09-18T06:32:33;18.20;86.70
37322;DHT22;23697;48.684;9.032;2023-09-18T06:35:00;18.30;86.70
37322;DHT22;23697;48.684;9.032;2023-09-18T06:37:28;18.30;86.80
37322;DHT22;23697;48.684;9.032;2023-09-18T06:39:55;18.40;86.50
37322;DHT22;23697;48.684;9.032;2023-09-18T06:42:23;18.40;86.50
37322;DHT22;23697;48.684;9.032;2023-09-18T06:44:50;18.40;86.40
37322;DHT22;23697;48.684;9.032;2023-09-18T06:47:16;18.40;86.60
37322;DHT22;23697;48.684;9.032;2023-09-18T06:49:43;18.30;86.40
37322;DHT22;23697;48.684;9.032;2023-09-18T06:52:10;18.40;86.10
37322;DHT22;23697;48.684;9.032;2023-09-18T06:54:40;18.30;86.20
37322;DHT22;23697;48.684;9.032;2023-09-18T06:57:07;18.40;85.70
37322;DHT22;23697;48.684;9.032;2023-09-18T06:59:34;18.40;86.00
37322;DHT22;23697;48.684;9.032;2023-09-18T07:02:01;18.40;86.00
37322;DHT22;23697;48.684;9.032;2023-09-18T07:04:28;18.50;85.90
37322;DHT22;23697;48.684;9.032;2023-09-18T07:06:55;18.60;85.30
37322;DHT22;23697;48.684;9.032;2023-09-18T07:09:22;18.60;85.30
37322;DHT22;23697;48.684;9.032;2023-09-18T07:11:51;18.70;84.80
37322;DHT22;23697;48.684;9.032;2023-09-18T07:14:18;18.80;84.60
37322;DHT22;23697;48.684;9.032;2023-09-18T07:16:45;18.80;84.40
37322;DHT22;23697;48.684;9.032;2023-09-18T07:19:12;18.80;82.80
37322;DHT22;23697;48.684;9.032;2023-09-18T07:21:42;18.90;83.10
37322;DHT22;23697;48.684;9.032;2023-09-18T07:24:10;18.90;82.80
37322;DHT22;23697;48.684;9.032;2023-09-18T07:26:45;18.80;82.40
37322;DHT22;23697;48.684;9.032;2023-09-18T07:29:14;18.90;82.10
37322;DHT22;23697;48.684;9.032;2023-09-18T07:31:42;18.90;81.50
37322;DHT22;23697;48.684;9.032;2023-09-18T07:34:09;19.00;81.80
37322;DHT22;23697;48.684;9.032;2023-09-18T07:36:36;19.00;82.30
37322;DHT22;23697;48.684;9.032;2023-09-18T07:39:03;19.00;82.70
37322;DHT22;23697;48.684;9.032;2023-09-18T07:41:30;19.10;82.00
37322;DHT22;23697;48.684;9.032;2023-09-18T07:43:57;19.00;82.30
37322;DHT22;23697;48.684;9.032;2023-09-18T07:46:26;19.10;81.90
37322;DHT22;23697;48.684;9.032;2023-09-18T07:48:53;19.10;82.00
37322;DHT22;23697;48.684;9.032;2023-09-18T07:51:20;19.10;82.70
37322;DHT22;23697;48.684;9.032;2023-09-18T07:53:47;19.30;83.20
37322;DHT22;23697;48.684;9.032;2023-09-18T07:56:14;19.20;82.20
37322;DHT22;23697;48.684;9.032;2023-09-18T07:58:41;19.30;82.70
37322;DHT22;23697;48.684;9.032;2023-09-18T08:01:08;19.20;82.20
37322;DHT22;23697;48.684;9.032;2023-09-18T08:03:37;19.20;81.60
37322;DHT22;23697;48.684;9.032;2023-09-18T08:06:04;19.10;81.80
37322;DHT22;23697;48.684;9.032;2023-09-18T08:08:31;19.10;81.10
37322;DHT22;23697;48.684;9.032;2023-09-18T08:11:06;19.10;81.40
37322;DHT22;23697;48.684;9.032;2023-09-18T08:13:33;19.10;82.00
37322;DHT22;23697;48.684;9.032;2023-09-18T08:16:00;19.10;81.60
37322;DHT22;23697;48.684;9.032;2023-09-18T08:18:27;19.10;81.10
37322;DHT22;23697;48.684;9.032;2023-09-18T08:20:56;19.10;81.30
37322;DHT22;23697;48.684;9.032;2023-09-18T08:23:24;19.00;81.20
37322;DHT22;23697;48.684;9.032;2023-09-18T08:25:50;18.90;81.20
37322;DHT22;23697;48.684;9.032;2023-09-18T08:28:21;18.90;82.20
37322;DHT22;23697;48.684;9.032;2023-09-18T08:30:48;18.90;82.40
37322;DHT22;23697;48.684;9.032;2023-09-18T08:33:14;18.80;83.00
37322;DHT22;23697;48.684;9.032;2023-09-18T08:35:41;18.80;83.00
37322;DHT22;23697;48.684;9.032;2023-09-18T08:38:11;18.60;83.60
37322;DHT22;23697;48.684;9.032;2023-09-18T08:40:40;18.50;84.40
37322;DHT22;23697;48.684;9.032;2023-09-18T08:43:08;18.30;84.90
37322;DHT22;23697;48.684;9.032;2023-09-18T08:45:38;18.20;85.00
37322;DHT22;23697;48.684;9.032;2023-09-18T08:48:07;18.10;85.40
37322;DHT22;23697;48.684;9.032;2023-09-18T08:50:34;18.10;86.00
37322;DHT22;23697;48.684;9.032;2023-09-18T08:53:03;18.10;86.10
37322;DHT22;23697;48.684;9.032;2023-09-18T08:55:32;18.10;86.10
37322;DHT22;23697;48.684;9.032;2023-09-18T08:58:00;18.10;86.10
37322;DHT22;23697;48.684;9.032;2023-09-18T09:00:27;18.00;86.30
37322;DHT22;23697;48.684;9.032;2023-09-18T09:02:54;18.00;86.60
37322;DHT22;23697;48.684;9.032;2023-09-18T09:05:21;17.90;86.60
37322;DHT22;23697;48.684;9.032;2023-09-18T09:07:48;17.90;87.00
37322;DHT22;23697;48.684;9.032;2023-09-18T09:10:16;17.80;87.20
37322;DHT22;23697;48.684;9.032;2023-09-18T09:12:53;17.80;87.50
37322;DHT22;23697;48.684;9.032;2023-09-18T09:15:21;17.80;87.60
37322;DHT22;23697;48.684;9.032;2023-09-18T09:17:49;17.90;87.80
37322;DHT22;23697;48.684;9.032;2023-09-18T09:20:16;17.80;87.70
37322;DHT22;23697;48.684;9.032;2023-09-18T09:22:45;17.80;87.90
37322;DHT22;23697;48.684;9.032;2023-09-18T09:25:23;17.80;87.80
37322;DHT22;23697;48.684;9.032;2023-09-18T09:27:53;17.80;88.00
37322;DHT22;23697;48.684;9.032;2023-09-18T09:30:22;17.80;88.00
37322;DHT22;23697;48.684;9.032;2023-09-18T09:32:50;17.80;88.00
37322;DHT22;23697;48.684;9.032;2023-09-18T09:35:22;17.90;88.10
37322;DHT22;23697;48.684;9.032;2023-09-18T09:37:50;17.90;88.10
37322;DHT22;23697;48.684;9.032;2023-09-18T09:40:19;18.00;88.30
37322;DHT22;23697;48.684;9.032;2023-09-18T09:42:47;18.10;88.20
37322;DHT22;23697;48.684;9.032;2023-09-18T09:45:16;18.10;88.10
37322;DHT22;23697;48.684;9.032;2023-09-18T09:47:43;18.10;88.20
37322;DHT22;23697;48.684;9.032;2023-09-18T09:50:12;18.20;88.30
37322;DHT22;23697;48.684;9.032;2023-09-18T09:52:42;18.30;88.20
37322;DHT22;23697;48.684;9.032;2023-09-18T09:55:21;18.40;88.30
37322;DHT22;23697;48.684;9.032;2023-09-18T09:57:51;18.60;88.10
37322;DHT22;23697;48.684;9.032;2023-09-18T10:00:20;18.70;88.20
37322;DHT22;23697;48.684;9.032;2023-09-18T10:03:00;18.70;88.00
37322;DHT22;23697;48.684;9.032;2023-09-18T10:05:29;18.80;87.70
37322;DHT22;23697;48.684;9.032;2023-09-18T10:08:06;18.70;87.50
37322;DHT22;23697;48.684;9.032;2023-09-18T10:10:36;18.60;87.30
37322;DHT22;23697;48.684;9.032;2023-09-18T10:13:06;18.50;87.30
37322;DHT22;23697;48.684;9.032;2023-09-18T10:15:37;18.50;87.50
37322;DHT22;23697;48.684;9.032;2023-09-18T10:18:07;18.40;87.50
37322;DHT22;23697;48.684;9.032;2023-09-18T10:20:40;18.30;87.40
37322;DHT22;23697;48.684;9.032;2023-09-18T10:23:21;18.40;87.20
37322;DHT22;23697;48.684;9.032;2023-09-18T10:25:55;18.40;87.40
37322;DHT22;23697;48.684;9.032;2023-09-18T10:28:28;18.30;87.40
37322;DHT22;23697;48.684;9.032;2023-09-18T10:30:58;18.30;87.70
37322;DHT22;23697;48.684;9.032;2023-09-18T10:33:25;18.30;87.70
37322;DHT22;23697;48.684;9.032;2023-09-18T10:35:54;18.30;87.90
37322;DHT22;23697;48.684;9.032;2023-09-18T10:38:23;18.20;87.90
37322;DHT22;23697;48.684;9.032;2023-09-18T10:40:55;18.30;88.00
37322;DHT22;23697;48.684;9.032;2023-09-18T10:43:22;18.30;87.90
37322;DHT22;23697;48.684;9.032;2023-09-18T10:45:50;18.30;87.90
37322;DHT22;23697;48.684;9.032;2023-09-18T10:48:19;18.30;87.70
37322;DHT22;23697;48.684;9.032;2023-09-18T10:50:48;18.30;87.80
37322;DHT22;23697;48.684;9.032;2023-09-18T10:53:15;18.30;87.80
37322;DHT22;23697;48.684;9.032;2023-09-18T10:55:44;18.40;87.90
37322;DHT22;23697;48.684;9.032;2023-09-18T10:58:12;18.40;87.90
37322;DHT22;23697;48.684;9.032;2023-09-18T11:00:49;18.30;87.50
37322;DHT22;23697;48.684;9.032;2023-09-18T11:03:18;18.30;87.40
37322;DHT22;23697;48.684;9.032;2023-09-18T11:05:45;18.20;87.70
37322;DHT22;23697;48.684;9.032;2023-09-18T11:08:29;18.30;87.80
37322;DHT22;23697;48.684;9.032;2023-09-18T11:10:59;18.40;87.80
37322;DHT22;23697;48.684;9.032;2023-09-18T11:13:30;18.40;87.90
37322;DHT22;23697;48.684;9.032;2023-09-18T11:16:18;18.40;88.10
37322;DHT22;23697;48.684;9.032;2023-09-18T11:18:53;18.50;87.80
37322;DHT22;23697;48.684;9.032;2023-09-18T11:21:24;18.50;87.70
37322;DHT22;23697;48.684;9.032;2023-09-18T11:23:58;18.40;87.40
37322;DHT22;23697;48.684;9.032;2023-09-18T11:26:31;18.40;87.70
37322;DHT22;23697;48.684;9.032;2023-09-18T11:29:13;18.40;87.40
37322;DHT22;23697;48.684;9.032;2023-09-18T11:31:56;18.40;87.40
37322;DHT22;23697;48.684;9.032;2023-09-18T11:34:29;18.40;87.30
37322;DHT22;23697;48.684;9.032;2023-09-18T11:36:57;18.40;87.30
37322;DHT22;23697;48.684;9.032;2023-09-18T11:39:35;18.40;87.30
37322;DHT22;23697;48.684;9.032;2023-09-18T11:42:14;18.50;86.90
37322;DHT22;23697;48.684;9.032;2023-09-18T11:44:49;18.50;86.70
37322;DHT22;23697;48.684;9.032;2023-09-18T11:47:17;18.60;86.90
37322;DHT22;23697;48.684;9.032;2023-09-18T11:49:53;18.60;87.00
37322;DHT22;23697;48.684;9.032;2023-09-18T11:52:30;18.60;86.90
37322;DHT22;23697;48.684;9.032;2023-09-18T11:55:03;18.70;86.80
37322;DHT22;23697;48.684;9.032;2023-09-18T11:57:36;18.70;85.50
37322;DHT22;23697;48.684;9.032;2023-09-18T12:00:18;18.60;85.50
37322;DHT22;23697;48.684;9.032;2023-09-18T12:03:25;18.60;85.30
37322;DHT22;23697;48.684;9.032;2023-09-18T12:06:04;18.60;85.40
37322;DHT22;23697;48.684;9.032;2023-09-18T12:08:45;18.70;85.30
37322;DHT22;23697;48.684;9.032;2023-09-18T12:11:19;18.70;84.80
37322;DHT22;23697;48.684;9.032;2023-09-18T12:13:53;18.70;85.10
37322;DHT22;23697;48.684;9.032;2023-09-18T12:16:56;18.80;85.10
37322;DHT22;23697;48.684;9.032;2023-09-18T12:19:51;18.80;84.10
37322;DHT22;23697;48.684;9.032;2023-09-18T12:22:46;18.90;84.50
37322;DHT22;23697;48.684;9.032;2023-09-18T12:25:15;18.90;84.40
37322;DHT22;23697;48.684;9.032;2023-09-18T12:27:45;18.90;84.40
37322;DHT22;23697;48.684;9.032;2023-09-18T12:30:28;18.90;83.80
37322;DHT22;23697;48.684;9.032;2023-09-18T12:33:06;19.10;83.40
37322;DHT22;23697;48.684;9.032;2023-09-18T12:35:47;19.10;82.80
37322;DHT22;23697;48.684;9.032;2023-09-18T12:38:25;19.40;82.90
37322;DHT22;23697;48.684;9.032;2023-09-18T12:41:01;19.70;82.80
37322;DHT22;23697;48.684;9.032;2023-09-18T12:44:00;20.00;81.80
37322;DHT22;23697;48.684;9.032;2023-09-18T12:46:29;20.10;81.10
37322;DHT22;23697;48.684;9.032;2023-09-18T12:48:57;20.20;81.10
37322;DHT22;23697;48.684;9.032;2023-09-18T12:54:42;20.30;79.80
37322;DHT22;23697;48.684;9.032;2023-09-18T12:58:05;20.40;79.60
37322;DHT22;23697;48.684;9.032;2023-09-18T13:00:45;20.50;80.00
37322;DHT22;23697;48.684;9.032;2023-09-18T13:03:12;20.60;77.40
37322;DHT22;23697;48.684;9.032;2023-09-18T13:05:39;20.50;77.60
37322;DHT22;23697;48.684;9.032;2023-09-18T13:08:09;20.50;78.40
37322;DHT22;23697;48.684;9.032;2023-09-18T13:10:47;20.60;77.00
37322;DHT22;23697;48.684;9.032;2023-09-18T13:13:19;20.60;77.70
37322;DHT22;23697;48.684;9.032;2023-09-18T13:15:49;20.60;77.30
37322;DHT22;23697;48.684;9.032;2023-09-18T13:18:16;20.60;76.30
37322;DHT22;23697;48.684;9.032;2023-09-18T13:20:50;20.60;77.40
37322;DHT22;23697;48.684;9.032;2023-09-18T13:23:17;20.60;77.60
37322;DHT22;23697;48.684;9.032;2023-09-18T13:25:45;20.70;75.80
37322;DHT22;23697;48.684;9.032;2023-09-18T13:28:14;20.80;77.00
37322;DHT22;23697;48.684;9.032;2023-09-18T13:30:42;21.10;76.20
37322;DHT22;23697;48.684;9.032;2023-09-18T13:33:10;21.40;76.20
37322;DHT22;23697;48.684;9.032;2023-09-18T13:35:40;21.60;74.50
37322;DHT22;23697;48.684;9.032;2023-09-18T13:38:08;21.50;73.80
37322;DHT22;23697;48.684;9.032;2023-09-18T13:40:36;21.40;73.80
37322;DHT22;23697;48.684;9.032;2023-09-18T13:43:05;21.30;73.20
37322;DHT22;23697;48.684;9.032;2023-09-18T13:45:33;21.40;73.80
37322;DHT22;23697;48.684;9.032;2023-09-18T13:48:01;21.40;73.80
37322;DHT22;23697;48.684;9.032;2023-09-18T13:50:28;21.40;73.20
37322;DHT22;23697;48.684;9.032;2023-09-18T13:52:55;21.40;73.90
37322;DHT22;23697;48.684;9.032;2023-09-18T13:55:38;21.40;72.40
37322;DHT22;23697;48.684;9.032;2023-09-18T13:58:07;21.40;72.60
37322;DHT22;23697;48.684;9.032;2023-09-18T14:00:34;21.20;73.50
37322;DHT22;23697;48.684;9.032;2023-09-18T14:03:02;21.10;73.00
37322;DHT22;23697;48.684;9.032;2023-09-18T14:05:29;21.10;73.90
37322;DHT22;23697;48.684;9.032;2023-09-18T14:07:58;21.10;74.60
37322;DHT22;23697;48.684;9.032;2023-09-18T14:10:26;21.10;74.70
37322;DHT22;23697;48.684;9.032;2023-09-18T14:12:53;21.20;72.80
37322;DHT22;23697;48.684;9.032;2023-09-18T14:15:22;21.30;72.10
37322;DHT22;23697;48.684;9.032;2023-09-18T14:17:49;21.20;73.20
37322;DHT22;23697;48.684;9.032;2023-09-18T14:20:16;21.20;72.90
37322;DHT22;23697;48.684;9.032;2023-09-18T14:22:47;21.10;72.80
37322;DHT22;23697;48.684;9.032;2023-09-18T14:25:19;21.10;72.30
37322;DHT22;23697;48.684;9.032;2023-09-18T14:27:50;21.10;73.00
37322;DHT22;23697;48.684;9.032;2023-09-18T14:30:18;21.10;73.30
37322;DHT22;23697;48.684;9.032;2023-09-18T14:33:00;21.10;72.60
37322;DHT22;23697;48.684;9.032;2023-09-18T14:35:28;21.10;73.10
37322;DHT22;23697;48.684;9.032;2023-09-18T14:37:54;21.10;72.80
37322;DHT22;23697;48.684;9.032;2023-09-18T14:40:21;21.10;72.00
37322;DHT22;23697;48.684;9.032;2023-09-18T14:42:48;21.10;73.00
37322;DHT22;23697;48.684;9.032;2023-09-18T14:45:15;21.20;71.40
37322;DHT22;23697;48.684;9.032;2023-09-18T14:47:45;21.50;72.60
37322;DHT22;23697;48.684;9.032;2023-09-18T14:50:14;21.60;71.80
37322;DHT22;23697;48.684;9.032;2023-09-18T14:52:41;21.60;71.00
37322;DHT22;23697;48.684;9.032;2023-09-18T14:55:08;21.70;71.20
37322;DHT22;23697;48.684;9.032;2023-09-18T14:57:35;21.70;70.50
37322;DHT22;23697;48.684;9.032;2023-09-18T15:00:07;21.60;71.40
37322;DHT22;23697;48.684;9.032;2023-09-18T15:02:34;21.50;70.30
37322;DHT22;23697;48.684;9.032;2023-09-18T15:05:01;21.30;71.70
37322;DHT22;23697;48.684;9.032;2023-09-18T15:07:32;21.10;71.60
37322;DHT22;23697;48.684;9.032;2023-09-18T15:09:59;21.10;73.10
37322;DHT22;23697;48.684;9.032;2023-09-18T15:12:25;21.10;73.00
37322;DHT22;23697;48.684;9.032;2023-09-18T15:14:52;21.00;73.10
37322;DHT22;23697;48.684;9.032;2023-09-18T15:17:22;21.00;72.50
37322;DHT22;23697;48.684;9.032;2023-09-18T15:19:51;21.00;72.60
37322;DHT22;23697;48.684;9.032;2023-09-18T15:22:21;21.10;72.40
37322;DHT22;23697;48.684;9.032;2023-09-18T15:24:49;21.10;71.10
37322;DHT22;23697;48.684;9.032;2023-09-18T15:27:18;21.10;71.10
37322;DHT22;23697;48.684;9.032;2023-09-18T15:29:45;21.40;71.40
37322;DHT22;23697;48.684;9.032;2023-09-18T15:32:12;21.30;70.70
37322;DHT22;23697;48.684;9.032;2023-09-18T15:34:39;21.40;70.80
37322;DHT22;23697;48.684;9.032;2023-09-18T15:37:06;21.30;69.40
37322;DHT22;23697;48.684;9.032;2023-09-18T15:39:33;21.40;71.50
37322;DHT22;23697;48.684;9.032;2023-09-18T15:42:02;21.30;69.80
37322;DHT22;23697;48.684;9.032;2023-09-18T15:44:31;21.30;69.70
37322;DHT22;23697;48.684;9.032;2023-09-18T15:46:59;21.40;69.70
37322;DHT22;23697;48.684;9.032;2023-09-18T15:49:26;21.30;69.30
37322;DHT22;23697;48.684;9.032;2023-09-18T15:51:53;21.30;70.20
37322;DHT22;23697;48.684;9.032;2023-09-18T15:54:20;21.40;71.20
37322;DHT22;23697;48.684;9.032;2023-09-18T15:56:48;21.30;70.40
37322;DHT22;23697;48.684;9.032;2023-09-18T15:59:17;21.10;70.10
37322;DHT22;23697;48.684;9.032;2023-09-18T16:01:44;21.00;71.10
37322;DHT22;23697;48.684;9.032;2023-09-18T16:04:11;20.80;71.60
37322;DHT22;23697;48.684;9.032;2023-09-18T16:06:37;20.60;72.00
37322;DHT22;23697;48.684;9.032;2023-09-18T16:09:05;20.50;72.60
37322;DHT22;23697;48.684;9.032;2023-09-18T16:11:32;20.40;73.20
37322;DHT22;23697;48.684;9.032;2023-09-18T16:13:59;20.30;72.70
37322;DHT22;23697;48.684;9.032;2023-09-18T16:16:27;20.30;72.20
37322;DHT22;23697;48.684;9.032;2023-09-18T16:18:54;20.20;73.00
37322;DHT22;23697;48.684;9.032;2023-09-18T16:21:23;20.10;72.80
37322;DHT22;23697;48.684;9.032;2023-09-18T16:23:49;20.00;73.50
37322;DHT22;23697;48.684;9.032;2023-09-18T16:26:16;19.90;74.00
37322;DHT22;23697;48.684;9.032;2023-09-18T16:28:43;19.90;73.90
37322;DHT22;23697;48.684;9.032;2023-09-18T16:31:14;19.80;75.10
37322;DHT22;23697;48.684;9.032;2023-09-18T16:33:43;19.70;75.20
37322;DHT22;23697;48.684;9.032;2023-09-18T16:36:10;19.60;75.40
37322;DHT22;23697;48.684;9.032;2023-09-18T16:38:36;19.60;75.80
37322;DHT22;23697;48.684;9.032;2023-09-18T16:41:07;19.40;76.10
37322;DHT22;23697;48.684;9.032;2023-09-18T16:43:33;19.40;76.30
37322;DHT22;23697;48.684;9.032;2023-09-18T16:46:01;19.40;76.10
37322;DHT22;23697;48.684;9.032;2023-09-18T16:48:28;19.30;76.50
37322;DHT22;23697;48.684;9.032;2023-09-18T16:50:58;19.10;77.00
37322;DHT22;23697;48.684;9.032;2023-09-18T16:53:25;19.10;77.10
37322;DHT22;23697;48.684;9.032;2023-09-18T16:55:52;19.20;76.90
37322;DHT22;23697;48.684;9.032;2023-09-18T16:58:19;19.10;77.10
37322;DHT22;23697;48.684;9.032;2023-09-18T17:00:46;19.10;77.30
37322;DHT22;23697;48.684;9.032;2023-09-18T17:03:13;19.00;77.60
37322;DHT22;23697;48.684;9.032;2023-09-18T17:05:43;19.10;77.30
37322;DHT22;23697;48.684;9.032;2023-09-18T17:08:12;19.00;78.10
37322;DHT22;23697;48.684;9.032;2023-09-18T17:10:39;19.00;78.20
37322;DHT22;23697;48.684;9.032;2023-09-18T17:13:08;18.90;78.30
37322;DHT22;23697;48.684;9.032;2023-09-18T17:15:35;18.90;78.30
37322;DHT22;23697;48.684;9.032;2023-09-18T17:18:04;18.80;78.60
37322;DHT22;23697;48.684;9.032;2023-09-18T17:20:32;18.90;78.60
37322;DHT22;23697;48.684;9.032;2023-09-18T17:22:59;18.70;78.80
37322;DHT22;23697;48.684;9.032;2023-09-18T17:25:30;18.70;79.10
37322;DHT22;23697;48.684;9.032;2023-09-18T17:27:58;18.70;79.20
37322;DHT22;23697;48.684;9.032;2023-09-18T17:30:28;18.60;79.40
37322;DHT22;23697;48.684;9.032;2023-09-18T17:32:56;18.60;79.30